Time;durP1;ratioP1;P1;durP2;ratioP2;P2;SDS_P1;SDS_P2;PMS_P1;PMS_P2;Temp;Humidity;BMP_temperature;BMP_pressure;BME280_temperature;BME280_humidity;BME280_pressure;Samples;Min_cycle;Max_cycle;Signal;HPM_P1;HPM_P2
2021/11/11 00:00:45;;;;;;;3.80;2.50;;;;;;;0.13;67.20;100731.63;5066585;28;20110;-79
2021/11/11 00:03:11;;;;;;;7.00;2.80;;;;;;;0.37;66.69;100756.66;5033760;28;20043;-80
2021/11/11 00:05:37;;;;;;;5.22;2.90;;;;;;;0.28;66.97;100750.28;5063325;28;20040;-78
2021/11/11 00:08:04;;;;;;;5.28;2.72;;;;;;;0.31;66.93;100757.22;5049330;28;20072;-80
2021/11/11 00:10:30;;;;;;;4.57;2.33;;;;;;;0.19;66.71;100703.75;5047807;28;20040;-79
2021/11/11 00:12:57;;;;;;;4.55;2.50;;;;;;;0.35;67.12;100720.72;5037702;28;20036;-77
2021/11/11 00:15:23;;;;;;;5.32;2.97;;;;;;;0.47;67.86;100733.25;5062532;28;20032;-81
2021/11/11 00:17:50;;;;;;;5.90;2.78;;;;;;;0.54;67.31;100735.28;5061715;28;20036;-81
2021/11/11 00:20:19;;;;;;;6.03;2.80;;;;;;;0.49;67.12;100735.84;5025620;28;20071;-78
2021/11/11 00:22:46;;;;;;;6.50;2.83;;;;;;;0.41;67.34;100697.09;5060404;28;20830;-78
2021/11/11 00:25:14;;;;;;;5.00;2.70;;;;;;;0.55;66.83;100736.16;5060009;28;20033;-79
2021/11/11 00:27:41;;;;;;;5.82;3.15;;;;;;;0.59;67.49;100730.38;5063855;28;20040;-80
2021/11/11 00:30:12;;;;;;;6.38;3.08;;;;;;;0.63;67.66;100723.69;5061755;28;20381;-80
2021/11/11 00:32:39;;;;;;;5.53;2.50;;;;;;;0.65;67.78;100724.66;5048842;28;20079;-78
2021/11/11 00:35:07;;;;;;;4.28;2.53;;;;;;;0.69;67.63;100726.56;5064752;28;20033;-78
2021/11/11 00:37:33;;;;;;;4.60;2.60;;;;;;;0.73;67.74;100716.50;5063179;28;20049;-77
2021/11/11 00:39:59;;;;;;;4.10;2.47;;;;;;;0.58;66.90;100679.94;5072758;28;20052;-78
2021/11/11 00:42:25;;;;;;;5.15;2.70;;;;;;;0.71;67.71;100679.69;5073517;28;20846;-78
2021/11/11 00:44:51;;;;;;;6.10;2.55;;;;;;;0.77;67.72;100689.34;5062847;28;20040;-79
2021/11/11 00:47:17;;;;;;;5.53;2.75;;;;;;;0.64;67.65;100651.16;5076151;28;20025;-80
2021/11/11 00:49:44;;;;;;;5.65;2.65;;;;;;;0.85;67.64;100679.44;5057806;28;20556;-79
2021/11/11 00:52:11;;;;;;;5.30;2.40;;;;;;;0.87;67.18;100683.81;5054546;28;20119;-78
2021/11/11 00:54:39;;;;;;;5.65;2.80;;;;;;;0.55;67.36;100616.63;5068697;28;20066;-79
2021/11/11 00:57:09;;;;;;;4.40;2.70;;;;;;;0.69;67.72;100637.75;5070806;28;20106;-80
2021/11/11 00:59:38;;;;;;;4.97;2.90;;;;;;;0.87;67.55;100665.88;5043069;28;20040;-79
2021/11/11 01:02:08;;;;;;;3.63;2.40;;;;;;;0.81;67.60;100660.47;5067421;28;20123;-81
2021/11/11 01:04:35;;;;;;;5.43;2.35;;;;;;;0.92;66.94;100671.19;5059503;28;20090;-82
2021/11/11 01:07:00;;;;;;;5.03;2.20;;;;;;;0.95;67.65;100685.84;5060359;28;20032;-80
2021/11/11 01:09:29;;;;;;;4.63;2.33;;;;;;;0.89;67.61;100666.81;5069089;28;20059;-78
2021/11/11 01:11:57;;;;;;;5.25;2.45;;;;;;;0.94;67.44;100658.47;5072205;28;20037;-81
2021/11/11 01:14:23;;;;;;;3.63;2.33;;;;;;;0.85;66.91;100644.44;5068557;28;20040;-78
2021/11/11 01:16:49;;;;;;;3.13;1.92;;;;;;;1.00;67.05;100661.28;5073156;28;20117;-79
2021/11/11 01:19:15;;;;;;;5.85;2.70;;;;;;;0.78;67.30;100621.03;5045995;28;20055;-84
2021/11/11 01:21:41;;;;;;;3.90;2.33;;;;;;;0.76;67.16;100620.97;5066921;28;20040;-80
2021/11/11 01:24:07;;;;;;;3.25;2.05;;;;;;;1.02;66.94;100657.09;5050624;28;20094;-82
2021/11/11 01:26:33;;;;;;;4.05;2.15;;;;;;;0.77;66.89;100609.03;5060931;28;20076;-79
2021/11/11 01:29:01;;;;;;;4.35;2.10;;;;;;;0.94;66.79;100625.16;5052625;28;20484;-80
2021/11/11 01:31:27;;;;;;;5.88;2.45;;;;;;;0.97;66.85;100627.84;5044752;28;20044;-79
2021/11/11 01:33:53;;;;;;;3.20;1.90;;;;;;;0.85;66.80;100603.44;5069302;28;20134;-81
2021/11/11 01:36:19;;;;;;;3.67;2.30;;;;;;;1.16;66.41;100632.06;5049991;28;20109;-79
2021/11/11 01:38:55;;;;;;;7.32;2.08;;;;;;;1.19;66.64;100606.56;5073282;28;20067;-80
2021/11/11 01:41:27;;;;;;;3.30;2.20;;;;;;;1.11;66.40;100606.22;5072387;28;20075;-80
2021/11/11 01:43:54;;;;;;;4.07;2.10;;;;;;;1.24;66.59;100617.00;5066012;28;20036;-79
2021/11/11 01:46:20;;;;;;;4.07;1.80;;;;;;;1.05;65.74;100577.78;5037635;28;20043;-77
2021/11/11 01:48:46;;;;;;;4.55;1.88;;;;;;;1.31;65.83;100621.59;5069028;28;20036;-76
2021/11/11 01:51:20;;;;;;;4.60;1.97;;;;;;;1.24;65.98;100599.94;5061402;28;20111;-80
2021/11/11 01:53:52;;;;;;;3.10;2.03;;;;;;;1.32;65.67;100615.63;5076380;28;20051;-76
2021/11/11 01:56:22;;;;;;;3.40;1.95;;;;;;;1.14;65.82;100570.47;5086534;28;20033;-77
2021/11/11 01:58:49;;;;;;;3.78;2.05;;;;;;;1.41;65.76;100616.03;5050291;28;20041;-80
2021/11/11 02:01:16;;;;;;;4.47;1.80;;;;;;;1.41;65.04;100608.34;5057017;28;20051;-78
2021/11/11 02:03:43;;;;;;;3.92;1.95;;;;;;;1.38;65.28;100599.63;5045350;28;20041;-78
2021/11/11 02:06:21;;;;;;;4.43;1.98;;;;;;;1.48;65.28;100597.50;5040009;28;20040;-81
2021/11/11 02:08:58;;;;;;;4.53;2.13;;;;;;;1.49;64.90;100596.69;5065585;28;20044;-79
2021/11/11 02:11:35;;;;;;;3.75;1.83;;;;;;;1.46;65.36;100594.00;5050009;28;20037;-77
2021/11/11 02:14:04;;;;;;;6.03;1.88;;;;;;;1.29;64.36;100566.78;5061643;28;20048;-79
2021/11/11 02:16:35;;;;;;;4.20;2.00;;;;;;;1.49;64.41;100599.25;5064283;28;20067;-80
2021/11/11 02:19:01;;;;;;;4.38;1.73;;;;;;;0.91;64.33;100497.72;5041683;28;20090;-80
2021/11/11 02:21:28;;;;;;;3.78;2.03;;;;;;;0.76;64.06;100474.94;5026521;28;20068;-78
2021/11/11 02:24:01;;;;;;;3.30;1.92;;;;;;;1.47;64.53;100564.97;5040460;28;20055;-79
2021/11/11 02:26:52;;;;;;;4.15;2.03;;;;;;;1.63;64.47;100576.72;5047287;28;20400;-80
2021/11/11 02:29:26;;;;;;;4.68;1.92;;;;;;;1.66;63.91;100578.53;5050017;28;20497;-77
2021/11/11 02:31:52;;;;;;;3.63;1.88;;;;;;;1.61;63.98;100557.81;5065406;28;20048;-78
2021/11/11 02:34:21;;;;;;;3.95;2.22;;;;;;;1.46;63.57;100524.72;5029916;28;20036;-80
2021/11/11 02:37:04;;;;;;;3.03;1.70;;;;;;;1.60;63.42;100555.22;5035397;28;20099;-77
2021/11/11 02:40:05;;;;;;;2.88;1.88;;;;;;;1.50;63.46;100525.75;5031559;28;20393;-77
2021/11/11 02:42:37;;;;;;;3.33;1.70;;;;;;;1.65;62.97;100533.19;5049748;28;20048;-76
2021/11/11 02:45:09;;;;;;;;;;;;;;;1.76;63.03;100549.84;5038986;28;20492;-79
2021/11/11 02:47:40;;;;;;;2.80;1.93;;;;;;;1.77;63.40;100533.66;5043865;28;19920;-77
2021/11/11 02:50:08;;;;;;;3.67;1.90;;;;;;;1.75;62.58;100516.44;5032768;28;20091;-79
2021/11/11 02:52:34;;;;;;;2.80;1.58;;;;;;;1.63;62.62;100498.88;5065663;28;20037;-77
2021/11/11 02:55:00;;;;;;;4.22;2.00;;;;;;;1.75;62.90;100508.75;5046558;28;20457;-80
2021/11/11 02:57:34;;;;;;;2.75;1.92;;;;;;;1.79;62.49;100518.28;5034260;28;20109;-78
2021/11/11 03:00:13;;;;;;;3.28;1.88;;;;;;;1.89;62.40;100527.22;5040668;28;20048;-77
2021/11/11 03:02:42;;;;;;;3.45;1.80;;;;;;;1.72;62.24;100496.66;5051605;28;20028;-79
2021/11/11 03:05:11;;;;;;;4.60;2.03;;;;;;;1.86;62.01;100511.72;5043085;28;20044;-80
2021/11/11 03:07:37;;;;;;;2.92;1.80;;;;;;;1.89;62.25;100532.34;5033021;28;20045;-79
2021/11/11 03:10:09;;;;;;;5.78;2.22;;;;;;;1.86;61.35;100511.72;5049135;28;20059;-79
2021/11/11 03:12:37;;;;;;;4.55;1.80;;;;;;;1.66;61.87;100486.16;5043229;28;20033;-80
2021/11/11 03:15:05;;;;;;;3.22;1.50;;;;;;;1.82;61.56;100508.16;5041769;28;20049;-81
2021/11/11 03:17:31;;;;;;;3.15;1.90;;;;;;;1.90;61.81;100511.00;5063864;28;20044;-80
2021/11/11 03:19:57;;;;;;;4.10;2.00;;;;;;;1.65;61.54;100471.59;5064117;28;20055;-80
2021/11/11 03:22:23;;;;;;;2.58;1.63;;;;;;;1.89;61.36;100514.38;5068862;28;20047;-78
2021/11/11 03:24:53;;;;;;;4.45;1.80;;;;;;;1.83;61.32;100501.34;5052612;28;20044;-79
2021/11/11 03:30:28;;;;;;;3.58;1.63;;;;;;;1.93;61.31;100483.78;5211928;23;20054;-78
2021/11/11 03:32:56;;;;;;;3.42;1.60;;;;;;;1.91;61.32;100493.09;4935898;28;20627;-81
2021/11/11 03:35:27;;;;;;;2.92;1.98;;;;;;;1.85;60.90;100466.34;4963957;28;20526;-78
2021/11/11 03:37:55;;;;;;;3.75;2.10;;;;;;;1.80;60.87;100458.44;4962371;28;20050;-81
2021/11/11 03:40:28;;;;;;;4.40;1.90;;;;;;;1.85;60.86;100467.19;4950617;28;20076;-82
2021/11/11 03:42:56;;;;;;;3.20;2.10;;;;;;;1.94;60.94;100461.53;4967711;28;20050;-80
2021/11/11 03:45:26;;;;;;;2.33;1.73;;;;;;;1.92;60.86;100455.47;4980754;28;20935;-79
2021/11/11 03:47:53;;;;;;;4.15;1.90;;;;;;;1.89;60.60;100458.78;5001755;28;20046;-81
2021/11/11 03:50:20;;;;;;;3.83;1.67;;;;;;;1.88;60.20;100462.19;4974654;28;20062;-78
2021/11/11 03:52:49;;;;;;;8.63;1.70;;;;;;;1.91;60.25;100458.84;4977897;28;20346;-79
2021/11/11 03:55:17;;;;;;;3.35;1.67;;;;;;;1.92;60.64;100460.59;4966134;28;20035;-78
2021/11/11 03:57:46;;;;;;;3.55;1.60;;;;;;;1.97;60.40;100443.66;4956618;28;20046;-77
2021/11/11 04:00:15;;;;;;;3.45;1.85;;;;;;;2.00;60.08;100448.03;4959717;28;20042;-74
2021/11/11 04:02:42;;;;;;;2.58;1.80;;;;;;;1.75;60.03;100389.00;4979154;28;20057;-77
2021/11/11 04:05:11;;;;;;;2.40;1.60;;;;;;;1.93;59.96;100403.31;4959995;28;20042;-76
2021/11/11 04:07:44;;;;;;;4.65;2.30;;;;;;;1.99;60.04;100424.06;4990965;28;20046;-79
2021/11/11 04:10:12;;;;;;;3.50;1.80;;;;;;;2.02;59.41;100425.84;4973400;28;20039;-75
2021/11/11 04:12:38;;;;;;;5.30;1.70;;;;;;;1.86;59.90;100391.09;4970419;28;20042;-78
2021/11/11 04:15:07;;;;;;;5.18;1.80;;;;;;;2.03;59.63;100415.66;4960805;28;20082;-78
2021/11/11 04:17:33;;;;;;;3.17;1.70;;;;;;;1.50;59.44;100326.53;4976971;28;20042;-79
2021/11/11 04:19:59;;;;;;;2.78;1.75;;;;;;;2.00;59.78;100412.09;4961970;28;20035;-78
2021/11/11 04:22:25;;;;;;;2.97;1.80;;;;;;;1.95;59.65;100406.78;4966469;28;20050;-78
2021/11/11 04:24:52;;;;;;;3.65;1.83;;;;;;;2.00;59.26;100412.97;4968422;28;20114;-76
2021/11/11 04:27:29;;;;;;;4.35;1.90;;;;;;;2.00;59.35;100418.13;4986756;28;20049;-77
2021/11/11 04:32:52;;;;;;;4.60;1.88;;;;;;;2.01;59.25;100408.72;4991866;28;20050;-78
2021/11/11 04:35:21;;;;;;;4.18;2.40;;;;;;;1.86;59.61;100383.38;4986892;28;20062;-79
2021/11/11 04:39:06;;;;;;;3.40;1.88;;;;;;;2.04;59.21;100408.81;4986332;28;20119;-77
2021/11/11 04:43:43;;;;;;;3.97;2.05;;;;;;;2.00;59.14;100383.84;4961419;28;20042;-78
2021/11/11 05:00:45;;;;;;;4.47;2.72;;;;;;;2.07;58.81;100362.72;4966564;28;20054;-79
2021/11/11 05:05:37;;;;;;;3.72;1.80;;;;;;;2.13;58.75;100367.19;4976165;28;20053;-80
2021/11/11 05:08:03;;;;;;;2.25;1.65;;;;;;;2.06;58.94;100343.00;4993442;28;20054;-81
2021/11/11 05:10:29;;;;;;;4.47;1.90;;;;;;;2.18;58.92;100358.84;4958292;28;20417;-81
2021/11/11 05:12:58;;;;;;;3.97;1.95;;;;;;;1.98;58.76;100311.06;4971551;28;20548;-79
2021/11/11 05:15:24;;;;;;;4.70;2.10;;;;;;;2.26;59.17;100353.97;4973088;28;20050;-81
2021/11/11 05:17:51;;;;;;;4.20;2.05;;;;;;;2.14;58.72;100325.28;4967977;28;20089;-79
2021/11/11 05:20:20;;;;;;;4.85;1.95;;;;;;;2.30;58.48;100350.69;4969558;28;20058;-76
2021/11/11 05:22:48;;;;;;;5.72;2.03;;;;;;;2.16;58.53;100315.94;4972402;28;20047;-78
2021/11/11 05:25:15;;;;;;;4.07;2.38;;;;;;;2.06;58.47;100289.06;4953831;28;20136;-78
2021/11/11 05:27:44;;;;;;;4.55;2.22;;;;;;;2.35;58.42;100337.97;4966503;28;20174;-80
2021/11/11 05:30:12;;;;;;;3.83;1.90;;;;;;;2.40;57.94;100334.72;4956050;28;20081;-80
2021/11/11 05:32:38;;;;;;;4.05;1.80;;;;;;;2.40;58.32;100324.44;4954070;28;20501;-79
2021/11/11 05:35:07;;;;;;;3.25;1.83;;;;;;;2.39;58.04;100322.72;4957313;28;20181;-77
2021/11/11 05:37:33;;;;;;;3.22;2.17;;;;;;;2.23;58.20;100282.81;4961864;28;20046;-79
2021/11/11 05:40:00;;;;;;;3.10;1.85;;;;;;;2.47;57.92;100332.38;4997238;28;20042;-80
2021/11/11 05:42:27;;;;;;;5.13;2.13;;;;;;;2.59;57.95;100340.47;4980154;28;20038;-79
2021/11/11 05:44:54;;;;;;;4.75;2.08;;;;;;;2.56;57.97;100330.09;4939222;28;20050;-77
2021/11/11 05:47:20;;;;;;;4.28;2.30;;;;;;;2.63;57.73;100344.88;4959229;28;20038;-80
2021/11/11 05:49:51;;;;;;;4.53;2.50;;;;;;;2.63;57.44;100339.75;4983756;28;20038;-80
2021/11/11 05:52:17;;;;;;;3.58;2.40;;;;;;;2.66;57.69;100337.28;4980730;28;20074;-80
2021/11/11 05:54:46;;;;;;;3.47;2.00;;;;;;;2.70;57.53;100336.56;4976107;28;20034;-79
2021/11/11 05:57:12;;;;;;;3.80;2.13;;;;;;;2.70;57.58;100333.97;4976791;28;20554;-80
2021/11/11 05:59:40;;;;;;;4.47;2.17;;;;;;;2.83;57.35;100344.63;4973144;28;20030;-80
2021/11/11 06:02:07;;;;;;;5.82;2.33;;;;;;;2.92;57.29;100349.19;4985729;28;20141;-78
2021/11/11 06:04:33;;;;;;;3.88;1.90;;;;;;;2.81;56.97;100323.16;4980323;28;20472;-83
2021/11/11 06:07:01;;;;;;;4.28;2.30;;;;;;;2.91;57.13;100329.44;4969383;28;20071;-79
2021/11/11 06:09:27;;;;;;;3.53;2.45;;;;;;;2.74;56.81;100316.09;4995187;28;20161;-79
2021/11/11 06:11:53;;;;;;;3.97;2.15;;;;;;;2.75;57.49;100307.56;4978482;28;20571;-80
2021/11/11 06:14:19;;;;;;;5.72;2.15;;;;;;;2.20;57.20;100248.44;4974076;28;20042;-80
2021/11/11 06:16:47;;;;;;;3.92;2.70;;;;;;;2.54;57.08;100293.19;4978015;28;20164;-76
2021/11/11 06:19:18;;;;;;;5.60;2.70;;;;;;;2.69;57.21;100319.38;4974417;28;20148;-80
2021/11/11 06:21:45;;;;;;;5.57;2.47;;;;;;;2.28;57.60;100248.69;4957891;28;20093;-81
2021/11/11 06:24:24;;;;;;;5.20;2.58;;;;;;;2.96;56.77;100348.47;4977513;28;20572;-78
2021/11/11 06:26:50;;;;;;;5.40;2.80;;;;;;;2.72;57.60;100292.91;4941853;28;20048;-80
2021/11/11 06:29:16;;;;;;;6.13;2.33;;;;;;;3.05;57.66;100342.72;4942165;28;20050;-80
2021/11/11 06:31:46;;;;;;;4.93;2.38;;;;;;;2.51;57.27;100236.59;4971313;28;20145;-79
2021/11/11 06:34:20;;;;;;;4.75;2.60;;;;;;;2.74;57.18;100249.28;4962184;28;20042;-77
2021/11/11 06:36:48;;;;;;;4.55;2.42;;;;;;;3.30;57.28;100334.06;4976232;28;20045;-82
2021/11/11 06:39:15;;;;;;;5.78;2.47;;;;;;;3.37;57.45;100330.81;4959456;28;20572;-85
2021/11/11 06:41:41;;;;;;;4.85;2.33;;;;;;;3.38;56.84;100332.56;4977389;28;20038;-77
2021/11/11 06:44:07;;;;;;;3.13;2.33;;;;;;;3.18;56.84;100296.00;4957575;28;20049;-80
2021/11/11 06:46:33;;;;;;;4.80;2.72;;;;;;;3.26;56.88;100297.06;4962438;28;20042;-80
2021/11/11 06:48:59;;;;;;;3.75;2.38;;;;;;;2.86;57.00;100224.81;4972931;28;20414;-81
2021/11/11 06:51:24;;;;;;;5.95;3.15;;;;;;;3.52;56.76;100327.81;4975166;28;20137;-82
2021/11/11 06:53:50;;;;;;;5.45;2.47;;;;;;;3.26;56.62;100281.63;4993634;28;20046;-77
2021/11/11 06:56:16;;;;;;;7.72;2.70;;;;;;;3.49;55.98;100330.31;4993228;28;20050;-78
2021/11/11 06:58:43;;;;;;;4.20;2.40;;;;;;;3.47;56.30;100331.97;4975497;28;20054;-78
2021/11/11 07:01:10;;;;;;;5.10;2.38;;;;;;;3.38;55.92;100337.72;4976059;28;20042;-78
2021/11/11 07:03:38;;;;;;;7.38;2.72;;;;;;;2.98;56.24;100291.09;4996849;28;20046;-77
2021/11/11 07:06:05;;;;;;;5.68;2.97;;;;;;;2.97;56.60;100316.78;4962302;28;20363;-78
2021/11/11 07:08:31;;;;;;;11.00;3.03;;;;;;;3.03;57.02;100327.28;5001954;28;20121;-77
2021/11/11 07:10:56;;;;;;;5.65;3.05;;;;;;;2.50;57.28;100251.13;4993714;28;20108;-79
2021/11/11 07:13:22;;;;;;;4.10;2.65;;;;;;;2.64;57.90;100277.25;5002872;28;20583;-78
2021/11/11 07:15:49;;;;;;;4.93;3.15;;;;;;;2.79;58.67;100323.13;4970812;28;20628;-78
2021/11/11 07:18:16;;;;;;;7.22;2.67;;;;;;;2.49;59.06;100305.03;4990580;28;20413;-78
2021/11/11 07:20:49;;;;;;;6.45;2.95;;;;;;;2.56;59.36;100323.25;5004345;28;20105;-82
2021/11/11 07:23:31;;;;;;;6.40;3.20;;;;;;;2.41;60.28;100308.22;4983827;28;20105;-80
2021/11/11 07:25:58;;;;;;;8.35;3.72;;;;;;;2.45;60.79;100318.59;5003457;28;20042;-80
2021/11/11 07:28:32;;;;;;;6.35;3.53;;;;;;;2.05;61.35;100251.38;4987149;28;21306;-75
2021/11/11 07:31:03;;;;;;;6.88;3.38;;;;;;;2.47;61.82;100320.38;4979207;28;20062;-78
2021/11/11 07:33:30;;;;;;;7.97;3.30;;;;;;;2.40;62.10;100309.03;4948841;28;20043;-78
2021/11/11 07:35:55;;;;;;;7.38;3.78;;;;;;;2.37;62.43;100315.78;4986330;28;20413;-75
2021/11/11 07:38:22;;;;;;;6.38;3.50;;;;;;;2.45;62.84;100318.59;4988679;28;20021;-76
2021/11/11 07:40:48;;;;;;;7.30;3.55;;;;;;;2.41;63.02;100313.34;4990777;28;20141;-77
2021/11/11 07:43:15;;;;;;;7.68;3.83;;;;;;;2.25;63.20;100288.00;4989474;28;20042;-80
2021/11/11 07:45:44;;;;;;;9.00;3.55;;;;;;;2.39;63.53;100317.56;4990042;28;20046;-77
2021/11/11 07:48:10;;;;;;;5.30;3.33;;;;;;;2.39;63.41;100315.00;4975234;28;20063;-78
2021/11/11 07:50:40;;;;;;;6.85;3.75;;;;;;;2.41;63.69;100312.50;4968815;28;20499;-78
2021/11/11 07:53:09;;;;;;;7.82;3.60;;;;;;;2.29;64.08;100289.84;4944140;28;20046;-78
2021/11/11 07:55:43;;;;;;;8.13;3.60;;;;;;;2.30;64.22;100295.84;4972193;28;20057;-82
2021/11/11 07:58:12;;;;;;;6.85;4.25;;;;;;;1.99;64.34;100246.06;4956346;28;20054;-81
2021/11/11 08:00:41;;;;;;;6.78;3.75;;;;;;;2.21;64.02;100274.16;4987433;28;20077;-82
2021/11/11 08:03:09;;;;;;;8.65;3.58;;;;;;;2.24;64.47;100270.84;4974396;28;20050;-79
2021/11/11 08:05:37;;;;;;;7.57;3.72;;;;;;;2.47;64.45;100298.97;4960663;28;20058;-78
2021/11/11 08:08:03;;;;;;;11.30;4.40;;;;;;;2.50;64.60;100304.22;4979772;28;20245;-80
2021/11/11 08:10:38;;;;;;;6.72;3.67;;;;;;;2.26;65.16;100261.50;4981989;28;20050;-79
2021/11/11 08:14:01;;;;;;;5.97;3.70;;;;;;;1.88;65.30;100195.25;4973209;28;20078;-80
2021/11/11 08:16:23;;;;;;;7.45;3.92;;;;;;;2.31;65.31;100244.56;4977585;28;20114;-77
2021/11/11 08:18:56;;;;;;;8.40;4.05;;;;;;;1.18;65.11;100041.63;4988339;28;20061;-78
2021/11/11 08:21:22;;;;;;;6.60;3.85;;;;;;;2.14;65.54;100196.88;4942776;28;20157;-80
2021/11/11 08:23:53;;;;;;;6.97;3.60;;;;;;;2.67;65.54;100308.19;4972311;28;20046;-77
2021/11/11 08:26:19;;;;;;;;;;;;;;;2.75;65.51;100277.56;4952060;28;20434;-76
2021/11/11 08:28:47;;;;;;;9.13;4.05;;;;;;;2.08;65.38;100152.25;4973510;28;19922;-79
2021/11/11 08:31:23;;;;;;;9.20;3.88;;;;;;;2.73;65.90;100250.09;4974376;28;20074;-82
2021/11/11 08:33:52;;;;;;;6.88;3.90;;;;;;;2.43;65.66;100181.53;4976006;28;20042;-79
2021/11/11 08:36:19;;;;;;;7.30;3.65;;;;;;;3.02;66.23;100256.09;4958977;28;20502;-80
2021/11/11 08:38:46;;;;;;;8.27;3.80;;;;;;;2.79;65.36;100219.41;4993223;28;20053;-79
2021/11/11 08:41:12;;;;;;;6.70;4.07;;;;;;;2.95;66.25;100249.03;4991482;28;20050;-81
2021/11/11 08:43:38;;;;;;;7.40;4.40;;;;;;;2.79;66.02;100211.69;4956875;28;20499;-78
2021/11/11 08:46:08;;;;;;;9.18;4.10;;;;;;;2.88;65.89;100229.97;4946783;28;20053;-77
2021/11/11 08:48:35;;;;;;;9.00;4.38;;;;;;;2.93;65.91;100248.09;4981806;28;20042;-76
2021/11/11 08:51:01;;;;;;;7.80;4.25;;;;;;;2.77;65.70;100213.34;5001608;28;20045;-77
2021/11/11 08:53:30;;;;;;;8.68;4.25;;;;;;;2.89;65.65;100226.59;5004174;28;20060;-81
2021/11/11 08:55:56;;;;;;;6.53;4.07;;;;;;;2.87;65.48;100241.09;4975845;28;20390;-76
2021/11/11 08:58:22;;;;;;;8.00;4.70;;;;;;;2.64;66.00;100202.72;5000753;28;20422;-80
2021/11/11 09:00:53;;;;;;;7.28;4.50;;;;;;;2.79;66.06;100207.44;4964592;28;20042;-78
2021/11/11 09:03:22;;;;;;;10.73;5.15;;;;;;;3.07;65.61;100251.06;4979847;28;20391;-78
2021/11/11 09:05:48;;;;;;;7.93;5.32;;;;;;;2.96;65.64;100236.22;4960519;28;20070;-78
2021/11/11 09:08:18;;;;;;;12.35;4.85;;;;;;;2.99;65.92;100251.72;4998098;28;20152;-76
2021/11/11 09:10:46;;;;;;;9.88;5.00;;;;;;;2.99;65.94;100245.72;4977786;28;20047;-78
2021/11/11 09:13:14;;;;;;;7.70;4.60;;;;;;;2.86;66.01;100231.63;4973587;28;20046;-77
2021/11/11 09:15:41;;;;;;;9.50;5.03;;;;;;;2.77;66.21;100210.78;4962879;28;20045;-78
2021/11/11 09:18:08;;;;;;;11.80;4.95;;;;;;;3.02;66.57;100248.38;4965224;28;20540;-81
2021/11/11 09:20:35;;;;;;;9.30;4.63;;;;;;;2.82;66.37;100222.97;4979908;28;20044;-80
2021/11/11 09:23:02;;;;;;;7.97;4.53;;;;;;;2.91;66.58;100224.03;4979487;28;20018;-76
2021/11/11 09:25:34;;;;;;;12.07;4.68;;;;;;;2.89;66.49;100223.13;4986638;28;20030;-79
2021/11/11 09:28:01;;;;;;;10.40;5.03;;;;;;;2.73;66.87;100196.97;4993855;28;20049;-79
2021/11/11 09:30:33;;;;;;;9.32;4.50;;;;;;;3.09;66.88;100262.28;5000131;28;20053;-80
2021/11/11 09:32:59;;;;;;;9.80;4.65;;;;;;;3.15;66.82;100241.88;4985934;28;20591;-78
2021/11/11 09:35:26;;;;;;;7.75;4.50;;;;;;;3.15;66.44;100239.31;4982930;28;20189;-80
2021/11/11 09:37:52;;;;;;;7.25;4.22;;;;;;;2.63;66.22;100136.72;4995087;28;20138;-82
2021/11/11 09:40:22;;;;;;;7.68;4.32;;;;;;;3.12;66.50;100222.09;4995099;28;20056;-81
2021/11/11 09:42:49;;;;;;;10.27;5.20;;;;;;;3.17;66.81;100223.09;4961232;28;20481;-78
2021/11/11 09:45:19;;;;;;;8.13;4.55;;;;;;;3.27;66.31;100229.34;4994976;28;20537;-83
2021/11/11 09:47:46;;;;;;;8.55;4.50;;;;;;;3.32;66.20;100224.34;4995460;28;20046;-78
2021/11/11 09:50:13;;;;;;;11.38;4.80;;;;;;;2.53;66.45;100104.75;4981504;28;20038;-80
2021/11/11 09:52:51;;;;;;;10.38;5.22;;;;;;;1.95;65.96;100019.19;4982541;28;20133;-82
2021/11/11 10:00:59;;;;;;;9.75;4.82;;;;;;;3.13;66.16;100210.13;5005189;28;20046;-77
2021/11/11 10:03:25;;;;;;;8.93;4.82;;;;;;;3.28;66.10;100222.53;5008089;28;20140;-82
2021/11/11 10:05:55;;;;;;;9.82;5.18;;;;;;;2.78;66.43;100123.44;4990464;28;20049;-79
2021/11/11 10:08:35;;;;;;;13.00;4.90;;;;;;;2.58;66.04;100104.03;4976725;28;20164;-81
2021/11/11 10:11:08;;;;;;;8.52;5.00;;;;;;;2.10;66.22;100000.81;4947761;28;20212;-82
2021/11/11 10:13:34;;;;;;;9.68;4.80;;;;;;;2.87;66.21;100125.41;4994484;28;20062;-81
2021/11/11 10:16:16;;;;;;;9.75;5.00;;;;;;;2.73;65.90;100103.59;4993250;28;20119;-81
2021/11/11 10:19:07;;;;;;;6.45;4.22;;;;;;;3.39;66.39;100210.81;4964084;28;20517;-79
2021/11/11 10:24:42;;;;;;;9.82;4.50;;;;;;;3.53;66.18;100218.91;4958699;28;20233;-79
2021/11/11 10:27:32;;;;;;;7.68;4.70;;;;;;;3.40;66.05;100191.97;4956468;28;20180;-77
2021/11/11 10:30:24;;;;;;;11.23;5.30;;;;;;;3.43;66.01;100186.03;4955497;28;20054;-82
2021/11/11 10:32:58;;;;;;;11.60;4.55;;;;;;;3.60;65.84;100212.22;4973544;28;20058;-83
2021/11/11 10:35:29;;;;;;;8.93;4.75;;;;;;;3.57;65.68;100197.56;4981680;28;20059;-80
2021/11/11 10:38:13;;;;;;;8.88;5.28;;;;;;;3.67;65.61;100208.97;4980248;28;20424;-81
2021/11/11 10:40:52;;;;;;;11.25;5.18;;;;;;;3.66;66.32;100214.97;4954167;28;20054;-81
2021/11/11 10:43:22;;;;;;;7.78;4.32;;;;;;;3.68;65.73;100217.56;4974679;28;20065;-81
2021/11/11 10:45:51;;;;;;;13.25;5.30;;;;;;;3.65;66.54;100220.03;4970257;28;20035;-83
2021/11/11 10:48:20;;;;;;;11.90;5.13;;;;;;;3.61;66.13;100220.00;4974567;28;20154;-82
2021/11/11 10:50:49;;;;;;;8.73;4.93;;;;;;;3.59;66.12;100213.94;4970852;28;20141;-81
2021/11/11 10:53:26;;;;;;;10.85;4.88;;;;;;;3.35;65.94;100167.81;4973568;28;20066;-82
2021/11/11 10:55:55;;;;;;;10.15;5.10;;;;;;;3.47;66.31;100191.31;4972620;28;20050;-80
2021/11/11 10:58:25;;;;;;;10.40;5.25;;;;;;;3.48;66.28;100189.59;4971727;28;20061;-79
2021/11/11 11:01:06;;;;;;;9.98;5.25;;;;;;;3.46;66.38;100173.25;4943897;28;20475;-80
2021/11/11 11:03:48;;;;;;;11.70;4.70;;;;;;;2.72;66.38;100051.31;4970992;28;20047;-79
2021/11/11 11:06:27;;;;;;;10.27;5.22;;;;;;;3.66;66.72;100219.22;4948893;28;20043;-82
2021/11/11 11:08:57;;;;;;;10.95;5.20;;;;;;;3.59;67.08;100201.06;4959071;28;20039;-79
2021/11/11 11:11:28;;;;;;;8.43;4.78;;;;;;;3.76;66.14;100224.63;4976555;28;20402;-77
2021/11/11 11:14:00;;;;;;;10.68;5.07;;;;;;;3.78;65.80;100219.56;4975024;28;20042;-80
2021/11/11 11:16:34;;;;;;;8.82;4.78;;;;;;;3.69;65.95;100183.25;4974448;28;20046;-82
2021/11/11 11:19:15;;;;;;;10.90;4.90;;;;;;;3.80;66.58;100220.47;4969969;28;20038;-81
2021/11/11 11:21:48;;;;;;;12.23;5.35;;;;;;;3.72;66.66;100220.28;4975006;28;20050;-78
2021/11/11 11:24:18;;;;;;;10.20;5.53;;;;;;;3.88;66.57;100210.34;4974349;28;20576;-78
2021/11/11 11:26:50;;;;;;;10.80;5.88;;;;;;;3.86;66.21;100207.72;4973899;28;20066;-81
2021/11/11 11:29:26;;;;;;;10.20;5.22;;;;;;;3.65;66.43;100166.00;4969312;28;20055;-80
2021/11/11 11:35:04;;;;;;;10.73;5.80;;;;;;;3.88;66.59;100200.91;4951932;29;20035;-82
2021/11/11 11:37:35;;;;;;;7.93;5.07;;;;;;;3.82;66.22;100208.50;4963197;28;20055;-81
2021/11/11 11:40:09;;;;;;;12.90;5.82;;;;;;;3.50;65.73;100149.34;4957305;28;20091;-80
2021/11/11 11:42:42;;;;;;;11.65;5.88;;;;;;;3.69;66.53;100184.16;4949719;28;20053;-78
2021/11/11 11:45:26;;;;;;;12.30;5.47;;;;;;;3.55;66.11;100158.06;4989764;28;20051;-81
2021/11/11 11:47:57;;;;;;;9.02;5.70;;;;;;;3.87;66.63;100194.00;4971407;28;20046;-81
2021/11/11 11:50:28;;;;;;;12.55;5.55;;;;;;;3.86;66.42;100200.00;4959798;28;20094;-80
2021/11/11 11:53:02;;;;;;;10.75;5.57;;;;;;;3.69;66.42;100183.25;4978375;28;20038;-80
2021/11/11 11:55:40;;;;;;;9.10;5.22;;;;;;;3.70;66.53;100211.63;4973530;28;20113;-79
2021/11/11 11:58:19;;;;;;;11.57;5.78;;;;;;;3.75;66.13;100209.16;4974620;28;20058;-78
2021/11/11 12:01:20;;;;;;;12.23;5.95;;;;;;;4.02;65.95;100233.88;4954582;28;20113;-82
2021/11/11 12:06:39;;;;;;;14.98;7.45;;;;;;;4.12;66.19;100219.50;4952245;28;20042;-80
2021/11/11 12:17:02;;;;;;;11.80;6.65;;;;;;;3.67;65.97;100154.94;4967197;28;20062;-78
2021/11/11 12:39:42;;;;;;;13.32;6.75;;;;;;;4.12;65.75;100215.22;4970107;28;20050;-80
2021/11/11 12:42:17;;;;;;;13.35;6.80;;;;;;;4.05;66.09;100208.19;4991907;28;20038;-78
2021/11/11 12:45:22;;;;;;;14.93;6.95;;;;;;;4.04;66.24;100201.31;4971097;28;20090;-80
2021/11/11 12:48:05;;;;;;;13.65;6.88;;;;;;;3.89;66.00;100188.91;4951838;28;20051;-78
2021/11/11 12:50:48;;;;;;;13.68;6.10;;;;;;;3.95;65.62;100208.78;4954961;28;20047;-78
2021/11/11 12:53:14;;;;;;;11.93;6.57;;;;;;;3.96;65.76;100219.16;4975104;28;20022;-81